sensor_id;sensor_type;location;lat;lon;timestamp;temperature;humidity
65038;DHT22;51605;47.040;15.294;2022-08-14T00:00:49;24.70;47.50
65038;DHT22;51605;47.040;15.294;2022-08-14T00:03:18;24.60;47.50
65038;DHT22;51605;47.040;15.294;2022-08-14T00:05:44;24.70;47.50
65038;DHT22;51605;47.040;15.294;2022-08-14T00:08:10;24.70;47.60
65038;DHT22;51605;47.040;15.294;2022-08-14T00:10:35;24.70;47.50
65038;DHT22;51605;47.040;15.294;2022-08-14T00:13:01;24.70;47.60
65038;DHT22;51605;47.040;15.294;2022-08-14T00:15:31;24.60;48.40
65038;DHT22;51605;47.040;15.294;2022-08-14T00:17:56;24.60;47.60
65038;DHT22;51605;47.040;15.294;2022-08-14T00:20:26;24.60;47.50
65038;DHT22;51605;47.040;15.294;2022-08-14T00:22:52;24.70;47.50
65038;DHT22;51605;47.040;15.294;2022-08-14T00:25:18;24.60;47.50
65038;DHT22;51605;47.040;15.294;2022-08-14T00:27:43;24.60;47.50
65038;DHT22;51605;47.040;15.294;2022-08-14T00:30:10;24.60;47.50
65038;DHT22;51605;47.040;15.294;2022-08-14T00:32:35;24.60;47.50
65038;DHT22;51605;47.040;15.294;2022-08-14T00:35:02;24.60;47.50
65038;DHT22;51605;47.040;15.294;2022-08-14T00:37:28;24.60;47.50
65038;DHT22;51605;47.040;15.294;2022-08-14T00:39:54;24.60;47.50
65038;DHT22;51605;47.040;15.294;2022-08-14T00:42:20;24.60;47.40
65038;DHT22;51605;47.040;15.294;2022-08-14T00:44:46;24.60;47.40
65038;DHT22;51605;47.040;15.294;2022-08-14T00:47:15;24.60;47.50
65038;DHT22;51605;47.040;15.294;2022-08-14T00:49:40;24.60;47.40
65038;DHT22;51605;47.040;15.294;2022-08-14T00:52:07;24.60;47.40
65038;DHT22;51605;47.040;15.294;2022-08-14T00:54:33;24.60;47.40
65038;DHT22;51605;47.040;15.294;2022-08-14T00:56:58;24.60;47.40
65038;DHT22;51605;47.040;15.294;2022-08-14T00:59:25;24.60;47.50
65038;DHT22;51605;47.040;15.294;2022-08-14T01:01:51;24.60;47.40
65038;DHT22;51605;47.040;15.294;2022-08-14T01:04:18;24.60;47.40
65038;DHT22;51605;47.040;15.294;2022-08-14T01:06:43;24.60;47.40
65038;DHT22;51605;47.040;15.294;2022-08-14T01:09:09;24.60;47.40
65038;DHT22;51605;47.040;15.294;2022-08-14T01:11:36;24.60;47.40
65038;DHT22;51605;47.040;15.294;2022-08-14T01:14:02;24.60;47.50
65038;DHT22;51605;47.040;15.294;2022-08-14T01:16:28;24.60;47.40
65038;DHT22;51605;47.040;15.294;2022-08-14T01:18:55;24.60;47.40
65038;DHT22;51605;47.040;15.294;2022-08-14T01:21:39;24.60;47.40
65038;DHT22;51605;47.040;15.294;2022-08-14T01:24:05;24.60;47.40
65038;DHT22;51605;47.040;15.294;2022-08-14T01:26:34;24.60;47.40
65038;DHT22;51605;47.040;15.294;2022-08-14T01:29:01;24.60;47.40
65038;DHT22;51605;47.040;15.294;2022-08-14T01:31:28;24.60;47.40
65038;DHT22;51605;47.040;15.294;2022-08-14T01:33:55;24.60;47.40
65038;DHT22;51605;47.040;15.294;2022-08-14T01:36:22;24.60;47.40
65038;DHT22;51605;47.040;15.294;2022-08-14T01:38:48;24.60;47.40
65038;DHT22;51605;47.040;15.294;2022-08-14T01:41:15;24.60;47.40
65038;DHT22;51605;47.040;15.294;2022-08-14T01:43:46;24.60;47.30
65038;DHT22;51605;47.040;15.294;2022-08-14T01:46:17;24.60;47.30
65038;DHT22;51605;47.040;15.294;2022-08-14T01:48:43;24.60;47.30
65038;DHT22;51605;47.040;15.294;2022-08-14T01:51:10;24.60;47.30
65038;DHT22;51605;47.040;15.294;2022-08-14T01:53:38;24.60;47.30
65038;DHT22;51605;47.040;15.294;2022-08-14T01:56:04;24.60;47.30
65038;DHT22;51605;47.040;15.294;2022-08-14T01:58:30;24.60;47.30
65038;DHT22;51605;47.040;15.294;2022-08-14T02:00:56;24.60;47.30
65038;DHT22;51605;47.040;15.294;2022-08-14T02:03:24;24.60;47.30
65038;DHT22;51605;47.040;15.294;2022-08-14T02:05:49;24.60;47.30
65038;DHT22;51605;47.040;15.294;2022-08-14T02:08:15;24.60;47.30
65038;DHT22;51605;47.040;15.294;2022-08-14T02:10:41;24.60;47.30
65038;DHT22;51605;47.040;15.294;2022-08-14T02:13:07;24.60;47.30
65038;DHT22;51605;47.040;15.294;2022-08-14T02:15:32;24.60;47.30
65038;DHT22;51605;47.040;15.294;2022-08-14T02:17:58;24.60;47.20
65038;DHT22;51605;47.040;15.294;2022-08-14T02:20:29;24.60;47.30
65038;DHT22;51605;47.040;15.294;2022-08-14T02:23:00;24.60;47.30
65038;DHT22;51605;47.040;15.294;2022-08-14T02:25:26;24.60;47.20
65038;DHT22;51605;47.040;15.294;2022-08-14T02:27:52;24.60;47.30
65038;DHT22;51605;47.040;15.294;2022-08-14T02:30:21;24.60;47.30
65038;DHT22;51605;47.040;15.294;2022-08-14T02:32:50;24.60;47.30
65038;DHT22;51605;47.040;15.294;2022-08-14T02:35:16;24.60;47.20
65038;DHT22;51605;47.040;15.294;2022-08-14T02:37:47;24.60;47.20
65038;DHT22;51605;47.040;15.294;2022-08-14T02:40:12;24.60;47.30
65038;DHT22;51605;47.040;15.294;2022-08-14T02:42:40;24.60;47.10
65038;DHT22;51605;47.040;15.294;2022-08-14T02:45:06;24.60;47.10
65038;DHT22;51605;47.040;15.294;2022-08-14T02:47:32;24.60;47.10
65038;DHT22;51605;47.040;15.294;2022-08-14T02:49:58;24.60;47.10
65038;DHT22;51605;47.040;15.294;2022-08-14T02:52:23;24.60;47.10
65038;DHT22;51605;47.040;15.294;2022-08-14T02:54:50;24.60;47.10
65038;DHT22;51605;47.040;15.294;2022-08-14T02:57:16;24.60;47.10
65038;DHT22;51605;47.040;15.294;2022-08-14T02:59:42;24.60;47.10
65038;DHT22;51605;47.040;15.294;2022-08-14T03:02:07;24.60;48.00
65038;DHT22;51605;47.040;15.294;2022-08-14T03:04:34;24.60;47.00
65038;DHT22;51605;47.040;15.294;2022-08-14T03:07:00;24.60;47.00
65038;DHT22;51605;47.040;15.294;2022-08-14T03:09:25;24.60;47.00
65038;DHT22;51605;47.040;15.294;2022-08-14T03:11:51;24.60;47.00
65038;DHT22;51605;47.040;15.294;2022-08-14T03:14:18;24.60;47.00
65038;DHT22;51605;47.040;15.294;2022-08-14T03:16:45;24.60;47.00
65038;DHT22;51605;47.040;15.294;2022-08-14T03:19:13;24.60;47.00
65038;DHT22;51605;47.040;15.294;2022-08-14T03:21:39;24.60;47.00
65038;DHT22;51605;47.040;15.294;2022-08-14T03:24:05;24.60;47.00
65038;DHT22;51605;47.040;15.294;2022-08-14T03:26:36;24.60;47.00
65038;DHT22;51605;47.040;15.294;2022-08-14T03:29:03;24.60;47.00
65038;DHT22;51605;47.040;15.294;2022-08-14T03:31:28;24.60;46.90
65038;DHT22;51605;47.040;15.294;2022-08-14T03:33:54;24.60;46.90
65038;DHT22;51605;47.040;15.294;2022-08-14T03:36:20;24.60;46.90
65038;DHT22;51605;47.040;15.294;2022-08-14T03:38:48;24.60;46.90
65038;DHT22;51605;47.040;15.294;2022-08-14T03:41:16;24.60;46.90
65038;DHT22;51605;47.040;15.294;2022-08-14T03:46:07;24.60;46.80
65038;DHT22;51605;47.040;15.294;2022-08-14T03:48:37;24.60;46.80
65038;DHT22;51605;47.040;15.294;2022-08-14T03:51:04;24.60;46.80
65038;DHT22;51605;47.040;15.294;2022-08-14T03:53:32;24.60;46.80
65038;DHT22;51605;47.040;15.294;2022-08-14T03:56:00;24.60;46.90
65038;DHT22;51605;47.040;15.294;2022-08-14T03:58:26;24.60;46.80
65038;DHT22;51605;47.040;15.294;2022-08-14T04:00:54;24.60;46.80
65038;DHT22;51605;47.040;15.294;2022-08-14T04:03:19;24.60;46.80
65038;DHT22;51605;47.040;15.294;2022-08-14T04:05:46;24.60;46.80
65038;DHT22;51605;47.040;15.294;2022-08-14T04:08:11;24.60;46.80
65038;DHT22;51605;47.040;15.294;2022-08-14T04:10:37;24.60;46.70
65038;DHT22;51605;47.040;15.294;2022-08-14T04:13:03;24.60;46.70
65038;DHT22;51605;47.040;15.294;2022-08-14T04:15:33;24.60;46.70
65038;DHT22;51605;47.040;15.294;2022-08-14T04:18:03;24.60;46.70
65038;DHT22;51605;47.040;15.294;2022-08-14T04:20:36;24.60;46.70
65038;DHT22;51605;47.040;15.294;2022-08-14T04:23:01;24.60;46.70
65038;DHT22;51605;47.040;15.294;2022-08-14T04:25:31;24.60;46.70
65038;DHT22;51605;47.040;15.294;2022-08-14T04:27:58;24.50;46.70
65038;DHT22;51605;47.040;15.294;2022-08-14T04:30:24;24.50;46.80
65038;DHT22;51605;47.040;15.294;2022-08-14T04:32:53;24.50;46.70
65038;DHT22;51605;47.040;15.294;2022-08-14T04:35:19;24.60;46.70
65038;DHT22;51605;47.040;15.294;2022-08-14T04:37:44;24.60;46.70
65038;DHT22;51605;47.040;15.294;2022-08-14T04:40:28;24.50;46.70
65038;DHT22;51605;47.040;15.294;2022-08-14T04:43:12;24.60;46.80
65038;DHT22;51605;47.040;15.294;2022-08-14T04:45:56;24.60;46.70
65038;DHT22;51605;47.040;15.294;2022-08-14T04:48:25;24.60;46.70
65038;DHT22;51605;47.040;15.294;2022-08-14T04:50:51;24.60;46.70
65038;DHT22;51605;47.040;15.294;2022-08-14T04:53:20;24.60;46.80
65038;DHT22;51605;47.040;15.294;2022-08-14T04:55:46;24.60;46.70
65038;DHT22;51605;47.040;15.294;2022-08-14T04:58:22;24.50;46.60
65038;DHT22;51605;47.040;15.294;2022-08-14T05:00:51;24.50;46.60
65038;DHT22;51605;47.040;15.294;2022-08-14T05:03:17;24.50;46.60
65038;DHT22;51605;47.040;15.294;2022-08-14T05:05:50;24.50;46.60
65038;DHT22;51605;47.040;15.294;2022-08-14T05:08:16;24.60;46.60
65038;DHT22;51605;47.040;15.294;2022-08-14T05:10:52;24.50;46.60
65038;DHT22;51605;47.040;15.294;2022-08-14T05:13:20;24.50;46.60
65038;DHT22;51605;47.040;15.294;2022-08-14T05:15:46;24.50;46.60
65038;DHT22;51605;47.040;15.294;2022-08-14T05:18:16;24.50;46.60
65038;DHT22;51605;47.040;15.294;2022-08-14T05:20:43;24.50;46.60
65038;DHT22;51605;47.040;15.294;2022-08-14T05:23:14;24.50;46.60
65038;DHT22;51605;47.040;15.294;2022-08-14T05:25:40;24.50;46.60
65038;DHT22;51605;47.040;15.294;2022-08-14T05:28:17;24.60;46.60
65038;DHT22;51605;47.040;15.294;2022-08-14T05:30:44;24.60;46.60
65038;DHT22;51605;47.040;15.294;2022-08-14T05:33:11;24.50;46.60
65038;DHT22;51605;47.040;15.294;2022-08-14T05:35:37;24.50;46.60
65038;DHT22;51605;47.040;15.294;2022-08-14T05:38:06;24.50;46.60
65038;DHT22;51605;47.040;15.294;2022-08-14T05:40:32;24.50;46.60
65038;DHT22;51605;47.040;15.294;2022-08-14T05:42:59;24.50;46.60
65038;DHT22;51605;47.040;15.294;2022-08-14T05:45:25;24.50;46.60
65038;DHT22;51605;47.040;15.294;2022-08-14T05:47:50;24.50;46.60
65038;DHT22;51605;47.040;15.294;2022-08-14T05:50:16;24.50;46.60
65038;DHT22;51605;47.040;15.294;2022-08-14T05:52:41;24.50;46.60
65038;DHT22;51605;47.040;15.294;2022-08-14T05:55:08;24.50;46.60
65038;DHT22;51605;47.040;15.294;2022-08-14T05:57:34;24.50;46.60
65038;DHT22;51605;47.040;15.294;2022-08-14T05:59:59;24.60;46.60
65038;DHT22;51605;47.040;15.294;2022-08-14T06:02:25;24.50;46.60
65038;DHT22;51605;47.040;15.294;2022-08-14T06:04:50;24.50;46.70
65038;DHT22;51605;47.040;15.294;2022-08-14T06:07:16;24.50;47.60
65038;DHT22;51605;47.040;15.294;2022-08-14T06:09:41;24.50;46.80
65038;DHT22;51605;47.040;15.294;2022-08-14T06:12:07;24.50;46.70
65038;DHT22;51605;47.040;15.294;2022-08-14T06:14:33;24.50;46.70
65038;DHT22;51605;47.040;15.294;2022-08-14T06:16:59;24.60;46.90
65038;DHT22;51605;47.040;15.294;2022-08-14T06:19:24;24.60;46.90
65038;DHT22;51605;47.040;15.294;2022-08-14T06:21:50;24.60;46.80
65038;DHT22;51605;47.040;15.294;2022-08-14T06:24:16;24.60;46.90
65038;DHT22;51605;47.040;15.294;2022-08-14T06:26:41;24.60;46.90
65038;DHT22;51605;47.040;15.294;2022-08-14T06:29:07;24.50;46.80
65038;DHT22;51605;47.040;15.294;2022-08-14T06:31:34;24.60;46.90
65038;DHT22;51605;47.040;15.294;2022-08-14T06:34:00;24.60;46.90
65038;DHT22;51605;47.040;15.294;2022-08-14T06:36:25;24.60;46.90
65038;DHT22;51605;47.040;15.294;2022-08-14T06:38:51;24.50;46.90
65038;DHT22;51605;47.040;15.294;2022-08-14T06:41:17;24.60;47.00
65038;DHT22;51605;47.040;15.294;2022-08-14T06:43:43;24.60;47.00
65038;DHT22;51605;47.040;15.294;2022-08-14T06:46:08;24.60;47.10
65038;DHT22;51605;47.040;15.294;2022-08-14T06:48:34;24.60;47.10
65038;DHT22;51605;47.040;15.294;2022-08-14T06:50:59;24.60;47.00
65038;DHT22;51605;47.040;15.294;2022-08-14T06:53:25;24.60;47.00
65038;DHT22;51605;47.040;15.294;2022-08-14T06:55:50;24.60;47.00
65038;DHT22;51605;47.040;15.294;2022-08-14T06:58:17;24.60;47.00
65038;DHT22;51605;47.040;15.294;2022-08-14T07:00:43;24.60;47.00
65038;DHT22;51605;47.040;15.294;2022-08-14T07:03:29;24.60;47.00
65038;DHT22;51605;47.040;15.294;2022-08-14T07:06:13;24.70;47.10
65038;DHT22;51605;47.040;15.294;2022-08-14T07:08:39;24.60;47.00
65038;DHT22;51605;47.040;15.294;2022-08-14T07:11:05;24.70;47.30
65038;DHT22;51605;47.040;15.294;2022-08-14T07:13:31;24.70;47.50
65038;DHT22;51605;47.040;15.294;2022-08-14T07:15:57;24.70;47.20
65038;DHT22;51605;47.040;15.294;2022-08-14T07:18:24;24.80;46.70
65038;DHT22;51605;47.040;15.294;2022-08-14T07:20:50;24.80;46.50
65038;DHT22;51605;47.040;15.294;2022-08-14T07:23:16;24.80;46.80
65038;DHT22;51605;47.040;15.294;2022-08-14T07:25:42;24.90;46.20
65038;DHT22;51605;47.040;15.294;2022-08-14T07:28:09;25.00;45.50
65038;DHT22;51605;47.040;15.294;2022-08-14T07:30:35;25.00;45.10
65038;DHT22;51605;47.040;15.294;2022-08-14T07:33:01;25.00;44.70
65038;DHT22;51605;47.040;15.294;2022-08-14T07:35:27;25.00;44.40
65038;DHT22;51605;47.040;15.294;2022-08-14T07:37:52;25.00;44.10
65038;DHT22;51605;47.040;15.294;2022-08-14T07:40:18;25.00;43.90
65038;DHT22;51605;47.040;15.294;2022-08-14T07:42:43;25.00;43.70
65038;DHT22;51605;47.040;15.294;2022-08-14T07:45:09;25.00;43.70
65038;DHT22;51605;47.040;15.294;2022-08-14T07:47:41;25.00;43.50
65038;DHT22;51605;47.040;15.294;2022-08-14T07:52:33;25.00;43.10
65038;DHT22;51605;47.040;15.294;2022-08-14T07:54:59;25.00;43.00
65038;DHT22;51605;47.040;15.294;2022-08-14T07:57:24;25.00;43.90
65038;DHT22;51605;47.040;15.294;2022-08-14T07:59:51;25.00;42.80
65038;DHT22;51605;47.040;15.294;2022-08-14T08:02:17;25.10;43.00
65038;DHT22;51605;47.040;15.294;2022-08-14T08:04:43;25.10;43.20
65038;DHT22;51605;47.040;15.294;2022-08-14T08:07:09;25.10;43.20
65038;DHT22;51605;47.040;15.294;2022-08-14T08:09:35;25.10;43.20
65038;DHT22;51605;47.040;15.294;2022-08-14T08:12:00;25.10;43.10
65038;DHT22;51605;47.040;15.294;2022-08-14T08:14:26;25.00;43.90
65038;DHT22;51605;47.040;15.294;2022-08-14T08:16:52;24.90;44.30
65038;DHT22;51605;47.040;15.294;2022-08-14T08:19:18;24.90;44.70
65038;DHT22;51605;47.040;15.294;2022-08-14T08:21:43;24.90;44.90
65038;DHT22;51605;47.040;15.294;2022-08-14T08:24:10;24.80;45.20
65038;DHT22;51605;47.040;15.294;2022-08-14T08:26:35;24.80;45.30
65038;DHT22;51605;47.040;15.294;2022-08-14T08:29:01;24.80;45.50
65038;DHT22;51605;47.040;15.294;2022-08-14T08:31:27;24.80;45.60
65038;DHT22;51605;47.040;15.294;2022-08-14T08:33:52;24.80;45.80
65038;DHT22;51605;47.040;15.294;2022-08-14T08:36:18;24.80;46.00
65038;DHT22;51605;47.040;15.294;2022-08-14T08:38:46;24.80;46.10
65038;DHT22;51605;47.040;15.294;2022-08-14T08:41:12;24.80;46.20
65038;DHT22;51605;47.040;15.294;2022-08-14T08:43:38;24.80;46.30
65038;DHT22;51605;47.040;15.294;2022-08-14T08:46:05;24.80;46.40
65038;DHT22;51605;47.040;15.294;2022-08-14T08:51:08;24.80;46.50
65038;DHT22;51605;47.040;15.294;2022-08-14T08:53:34;24.80;46.60
65038;DHT22;51605;47.040;15.294;2022-08-14T08:56:00;24.80;46.60
65038;DHT22;51605;47.040;15.294;2022-08-14T08:58:26;24.80;46.70
65038;DHT22;51605;47.040;15.294;2022-08-14T09:00:55;24.80;46.80
65038;DHT22;51605;47.040;15.294;2022-08-14T09:03:22;24.80;46.90
65038;DHT22;51605;47.040;15.294;2022-08-14T09:08:20;24.80;46.90
65038;DHT22;51605;47.040;15.294;2022-08-14T09:10:46;24.80;46.90
65038;DHT22;51605;47.040;15.294;2022-08-14T09:13:13;24.80;46.90
65038;DHT22;51605;47.040;15.294;2022-08-14T09:15:40;24.80;46.90
65038;DHT22;51605;47.040;15.294;2022-08-14T09:18:07;24.80;46.90
65038;DHT22;51605;47.040;15.294;2022-08-14T09:20:33;24.80;47.00
65038;DHT22;51605;47.040;15.294;2022-08-14T09:23:01;24.80;47.10
65038;DHT22;51605;47.040;15.294;2022-08-14T09:25:27;24.80;47.10
65038;DHT22;51605;47.040;15.294;2022-08-14T09:27:53;24.80;47.10
65038;DHT22;51605;47.040;15.294;2022-08-14T09:30:19;24.80;47.20
65038;DHT22;51605;47.040;15.294;2022-08-14T09:32:51;24.80;47.20
65038;DHT22;51605;47.040;15.294;2022-08-14T09:35:22;24.80;47.30
65038;DHT22;51605;47.040;15.294;2022-08-14T09:38:06;24.80;47.80
65038;DHT22;51605;47.040;15.294;2022-08-14T09:45:30;24.80;48.00
65038;DHT22;51605;47.040;15.294;2022-08-14T09:47:59;24.80;48.20
65038;DHT22;51605;47.040;15.294;2022-08-14T09:50:29;24.80;47.80
65038;DHT22;51605;47.040;15.294;2022-08-14T09:55:21;24.80;47.60
65038;DHT22;51605;47.040;15.294;2022-08-14T09:57:48;24.80;47.60
65038;DHT22;51605;47.040;15.294;2022-08-14T10:00:14;24.70;47.60
65038;DHT22;51605;47.040;15.294;2022-08-14T10:02:50;24.70;47.60
65038;DHT22;51605;47.040;15.294;2022-08-14T10:05:25;24.80;47.80
65038;DHT22;51605;47.040;15.294;2022-08-14T10:07:51;24.80;47.70
65038;DHT22;51605;47.040;15.294;2022-08-14T10:12:55;24.70;47.70
65038;DHT22;51605;47.040;15.294;2022-08-14T10:15:22;24.70;47.60
65038;DHT22;51605;47.040;15.294;2022-08-14T10:17:49;24.70;47.50
65038;DHT22;51605;47.040;15.294;2022-08-14T10:20:33;24.70;47.50
65038;DHT22;51605;47.040;15.294;2022-08-14T10:23:12;24.80;47.60
65038;DHT22;51605;47.040;15.294;2022-08-14T10:25:40;24.70;47.50
65038;DHT22;51605;47.040;15.294;2022-08-14T10:28:05;24.70;47.50
65038;DHT22;51605;47.040;15.294;2022-08-14T10:30:32;24.70;47.50
65038;DHT22;51605;47.040;15.294;2022-08-14T10:32:59;24.70;47.50
65038;DHT22;51605;47.040;15.294;2022-08-14T10:35:24;24.80;47.50
65038;DHT22;51605;47.040;15.294;2022-08-14T10:37:50;24.70;47.40
65038;DHT22;51605;47.040;15.294;2022-08-14T10:40:27;24.80;47.50
65038;DHT22;51605;47.040;15.294;2022-08-14T10:42:53;24.70;47.40
65038;DHT22;51605;47.040;15.294;2022-08-14T10:45:20;24.70;47.40
65038;DHT22;51605;47.040;15.294;2022-08-14T10:47:50;24.70;47.40
65038;DHT22;51605;47.040;15.294;2022-08-14T10:50:16;24.80;47.50
65038;DHT22;51605;47.040;15.294;2022-08-14T10:52:55;24.70;47.40
65038;DHT22;51605;47.040;15.294;2022-08-14T10:55:21;24.70;47.40
65038;DHT22;51605;47.040;15.294;2022-08-14T10:57:53;24.70;47.40
65038;DHT22;51605;47.040;15.294;2022-08-14T11:00:23;24.70;47.50
65038;DHT22;51605;47.040;15.294;2022-08-14T11:03:01;24.70;47.40
65038;DHT22;51605;47.040;15.294;2022-08-14T11:08:29;24.70;47.50
65038;DHT22;51605;47.040;15.294;2022-08-14T11:10:56;24.70;47.40
65038;DHT22;51605;47.040;15.294;2022-08-14T11:13:23;24.70;47.40
65038;DHT22;51605;47.040;15.294;2022-08-14T11:15:49;24.70;47.40
65038;DHT22;51605;47.040;15.294;2022-08-14T11:18:16;24.70;47.40
65038;DHT22;51605;47.040;15.294;2022-08-14T11:20:51;24.70;47.30
65038;DHT22;51605;47.040;15.294;2022-08-14T11:23:20;24.70;47.40
65038;DHT22;51605;47.040;15.294;2022-08-14T11:25:47;24.70;47.30
65038;DHT22;51605;47.040;15.294;2022-08-14T11:28:14;24.70;47.40
65038;DHT22;51605;47.040;15.294;2022-08-14T11:30:40;24.70;47.30
65038;DHT22;51605;47.040;15.294;2022-08-14T11:33:06;24.70;47.30
65038;DHT22;51605;47.040;15.294;2022-08-14T11:35:32;24.70;47.30
65038;DHT22;51605;47.040;15.294;2022-08-14T11:37:59;24.70;47.30
65038;DHT22;51605;47.040;15.294;2022-08-14T11:40:29;24.70;47.30
65038;DHT22;51605;47.040;15.294;2022-08-14T11:42:56;24.70;47.40
65038;DHT22;51605;47.040;15.294;2022-08-14T11:45:25;24.70;48.10
65038;DHT22;51605;47.040;15.294;2022-08-14T11:47:51;24.70;47.90
65038;DHT22;51605;47.040;15.294;2022-08-14T11:50:22;24.70;47.80
65038;DHT22;51605;47.040;15.294;2022-08-14T11:52:48;24.70;47.70
65038;DHT22;51605;47.040;15.294;2022-08-14T11:55:14;24.70;47.70
65038;DHT22;51605;47.040;15.294;2022-08-14T11:57:40;24.70;47.70
65038;DHT22;51605;47.040;15.294;2022-08-14T12:00:13;24.70;47.70
65038;DHT22;51605;47.040;15.294;2022-08-14T12:02:54;24.70;47.70
65038;DHT22;51605;47.040;15.294;2022-08-14T12:07:55;24.70;47.70
65038;DHT22;51605;47.040;15.294;2022-08-14T12:10:22;24.70;47.70
65038;DHT22;51605;47.040;15.294;2022-08-14T12:12:48;24.70;47.80
65038;DHT22;51605;47.040;15.294;2022-08-14T12:15:26;24.70;47.80
65038;DHT22;51605;47.040;15.294;2022-08-14T12:17:52;24.70;47.80
65038;DHT22;51605;47.040;15.294;2022-08-14T12:20:18;24.70;47.80
65038;DHT22;51605;47.040;15.294;2022-08-14T12:22:52;24.70;47.80
65038;DHT22;51605;47.040;15.294;2022-08-14T12:25:18;24.70;47.80
65038;DHT22;51605;47.040;15.294;2022-08-14T12:27:48;24.70;47.70
65038;DHT22;51605;47.040;15.294;2022-08-14T12:32:58;24.70;47.70
65038;DHT22;51605;47.040;15.294;2022-08-14T12:35:40;24.70;47.80
65038;DHT22;51605;47.040;15.294;2022-08-14T12:38:07;24.70;47.70
65038;DHT22;51605;47.040;15.294;2022-08-14T12:40:55;24.70;47.70
65038;DHT22;51605;47.040;15.294;2022-08-14T12:43:20;24.70;47.60
65038;DHT22;51605;47.040;15.294;2022-08-14T12:45:46;24.70;47.60
65038;DHT22;51605;47.040;15.294;2022-08-14T12:48:14;24.70;47.70
65038;DHT22;51605;47.040;15.294;2022-08-14T12:50:41;24.70;47.70
65038;DHT22;51605;47.040;15.294;2022-08-14T12:53:07;24.70;47.70
65038;DHT22;51605;47.040;15.294;2022-08-14T12:55:34;24.70;47.60
65038;DHT22;51605;47.040;15.294;2022-08-14T12:58:01;24.70;47.70
65038;DHT22;51605;47.040;15.294;2022-08-14T13:00:30;24.70;47.70
65038;DHT22;51605;47.040;15.294;2022-08-14T13:02:56;24.70;47.70
65038;DHT22;51605;47.040;15.294;2022-08-14T13:05:29;24.70;47.60
65038;DHT22;51605;47.040;15.294;2022-08-14T13:07:55;24.70;47.70
65038;DHT22;51605;47.040;15.294;2022-08-14T13:10:21;24.70;47.70
65038;DHT22;51605;47.040;15.294;2022-08-14T13:12:48;24.70;47.80
65038;DHT22;51605;47.040;15.294;2022-08-14T13:15:14;24.70;47.70
65038;DHT22;51605;47.040;15.294;2022-08-14T13:17:44;24.60;47.70
65038;DHT22;51605;47.040;15.294;2022-08-14T13:20:11;24.70;47.70
65038;DHT22;51605;47.040;15.294;2022-08-14T13:22:37;24.70;47.70
65038;DHT22;51605;47.040;15.294;2022-08-14T13:25:06;24.70;47.70
65038;DHT22;51605;47.040;15.294;2022-08-14T13:27:32;24.70;47.70
65038;DHT22;51605;47.040;15.294;2022-08-14T13:29:58;24.70;47.70
65038;DHT22;51605;47.040;15.294;2022-08-14T13:32:24;24.70;47.60
65038;DHT22;51605;47.040;15.294;2022-08-14T13:34:49;24.70;47.70
65038;DHT22;51605;47.040;15.294;2022-08-14T13:37:15;24.70;47.70
65038;DHT22;51605;47.040;15.294;2022-08-14T13:39:47;24.70;47.70
65038;DHT22;51605;47.040;15.294;2022-08-14T13:42:15;24.70;47.70
65038;DHT22;51605;47.040;15.294;2022-08-14T13:44:46;24.70;47.70
65038;DHT22;51605;47.040;15.294;2022-08-14T13:47:13;24.70;47.70
65038;DHT22;51605;47.040;15.294;2022-08-14T13:49:39;24.70;47.70
65038;DHT22;51605;47.040;15.294;2022-08-14T13:52:05;24.70;47.60
65038;DHT22;51605;47.040;15.294;2022-08-14T13:54:33;24.70;47.70
65038;DHT22;51605;47.040;15.294;2022-08-14T13:57:00;24.70;47.70
65038;DHT22;51605;47.040;15.294;2022-08-14T13:59:28;24.70;47.70
65038;DHT22;51605;47.040;15.294;2022-08-14T14:01:58;24.70;47.70
65038;DHT22;51605;47.040;15.294;2022-08-14T14:04:28;24.70;47.70
65038;DHT22;51605;47.040;15.294;2022-08-14T14:06:55;24.70;47.70
65038;DHT22;51605;47.040;15.294;2022-08-14T14:09:25;24.70;47.70
65038;DHT22;51605;47.040;15.294;2022-08-14T14:11:52;24.60;47.60
65038;DHT22;51605;47.040;15.294;2022-08-14T14:14:19;24.60;47.70
65038;DHT22;51605;47.040;15.294;2022-08-14T14:16:44;24.60;47.80
65038;DHT22;51605;47.040;15.294;2022-08-14T14:19:11;24.70;47.70
65038;DHT22;51605;47.040;15.294;2022-08-14T14:21:37;24.60;47.60
65038;DHT22;51605;47.040;15.294;2022-08-14T14:24:05;24.60;48.60
65038;DHT22;51605;47.040;15.294;2022-08-14T14:26:30;24.70;48.30
65038;DHT22;51605;47.040;15.294;2022-08-14T14:28:56;24.70;48.50
65038;DHT22;51605;47.040;15.294;2022-08-14T14:31:24;24.70;48.30
65038;DHT22;51605;47.040;15.294;2022-08-14T14:33:52;24.80;47.60
65038;DHT22;51605;47.040;15.294;2022-08-14T14:36:21;24.80;47.10
65038;DHT22;51605;47.040;15.294;2022-08-14T14:39:09;24.80;47.00
65038;DHT22;51605;47.040;15.294;2022-08-14T14:41:38;24.80;47.00
65038;DHT22;51605;47.040;15.294;2022-08-14T14:44:08;24.90;47.00
65038;DHT22;51605;47.040;15.294;2022-08-14T14:46:36;25.00;46.90
65038;DHT22;51605;47.040;15.294;2022-08-14T14:49:03;25.10;46.70
65038;DHT22;51605;47.040;15.294;2022-08-14T14:51:30;25.10;46.60
65038;DHT22;51605;47.040;15.294;2022-08-14T14:53:56;25.20;46.30
65038;DHT22;51605;47.040;15.294;2022-08-14T14:56:22;25.30;46.30
65038;DHT22;51605;47.040;15.294;2022-08-14T14:58:50;25.30;46.20
65038;DHT22;51605;47.040;15.294;2022-08-14T15:01:15;25.40;46.10
65038;DHT22;51605;47.040;15.294;2022-08-14T15:03:42;25.50;45.90
65038;DHT22;51605;47.040;15.294;2022-08-14T15:06:08;25.50;45.70
65038;DHT22;51605;47.040;15.294;2022-08-14T15:08:33;25.60;45.60
65038;DHT22;51605;47.040;15.294;2022-08-14T15:11:00;25.70;45.40
65038;DHT22;51605;47.040;15.294;2022-08-14T15:13:26;25.70;45.40
65038;DHT22;51605;47.040;15.294;2022-08-14T15:15:54;25.70;45.10
65038;DHT22;51605;47.040;15.294;2022-08-14T15:18:20;25.80;45.00
65038;DHT22;51605;47.040;15.294;2022-08-14T15:20:47;25.80;44.60
65038;DHT22;51605;47.040;15.294;2022-08-14T15:23:13;25.80;44.80
65038;DHT22;51605;47.040;15.294;2022-08-14T15:25:40;25.80;44.70
65038;DHT22;51605;47.040;15.294;2022-08-14T15:28:08;25.90;44.50
65038;DHT22;51605;47.040;15.294;2022-08-14T15:30:37;25.90;44.40
65038;DHT22;51605;47.040;15.294;2022-08-14T15:33:02;25.90;44.10
65038;DHT22;51605;47.040;15.294;2022-08-14T15:35:28;25.90;44.00
65038;DHT22;51605;47.040;15.294;2022-08-14T15:37:54;25.90;43.90
65038;DHT22;51605;47.040;15.294;2022-08-14T15:40:19;25.90;43.90
65038;DHT22;51605;47.040;15.294;2022-08-14T15:42:45;25.80;43.50
65038;DHT22;51605;47.040;15.294;2022-08-14T15:45:12;25.80;43.50